Avioradar koristi kolačiće da bi Vam omogućio jednostavnije i ugodnije korištenje stranice. 

AVIORADAR - Hrvatski zrakoplovni portal

METAR & TAF

[Source: ADDS]
METAR
LDZA 190230Z 00000KT CAVOK 16/15 Q1015 NOSIG =
LDZA 182325Z 1900/2000 24006KT CAVOK TX32/1913Z TN18/1903Z LDSP 190230Z AUTO VRB02KT CAVOK 21/15 Q1015 NOSIG =
LDSP 182325Z 1900/2000 VRB02KT CAVOK TX31/1912Z TN21/1904Z BECMG 1909/1911 23010KT BECMG 1916/1918 30006KT LDDU 190230Z 09004KT CAVOK 21/15 Q1016 NOSIG =
LDDU 182325Z 1900/2000 08007KT 9999 FEW050 TX30/1912Z TN23/1904Z BECMG 1907/1909 21007KT BECMG 1912/1914 29008KT BECMG 1918/1920 08005KT LDPL 190230Z 08007KT CAVOK 20/14 Q1015 NOSIG =
LDPL 182325Z 1900/2000 06005KT CAVOK TX30/1913Z TN18/1900Z BECMG 1900/1902 09008KT BECMG 1909/1911 23008KT BECMG 1916/1918 VRB02KT LDZD 190230Z 13005KT CAVOK 17/15 Q1016 NOSIG =
LDZD 182325Z 1900/2000 12005KT CAVOK TX32/1913Z TN17/1902Z BECMG 1910/1912 28010KT BECMG 1916/1918 32005KT LDRI 190230Z 14002KT CAVOK 19/17 Q1016 =
LDRI 182325Z 1900/2000 VRB02KT CAVOK TX30/1913Z TN20/1904Z PROB30 TEMPO 1911/1916 30007KT LDOS 190230Z 05001KT CAVOK 14/13 Q1015 =
LDOS 182325Z 1900/2000 13007KT CAVOK TX33/1913Z TN15/1903Z
TAF
LDZA 182325Z 1900/2000 24006KT CAVOK TX32/1913Z TN18/1903Z =
LDSP 182325Z 1900/2000 VRB02KT CAVOK TX31/1912Z TN21/1904Z BECMG 1909/1911 23010KT BECMG 1916/1918 30006KT =
LDDU 182325Z 1900/2000 08007KT 9999 FEW050 TX30/1912Z TN23/1904Z BECMG 1907/1909 21007KT BECMG 1912/1914 29008KT BECMG 1918/1920 08005KT =
LDPL 182325Z 1900/2000 06005KT CAVOK TX30/1913Z TN18/1900Z BECMG 1900/1902 09008KT BECMG 1909/1911 23008KT BECMG 1916/1918 VRB02KT =
LDZD 182325Z 1900/2000 12005KT CAVOK TX32/1913Z TN17/1902Z BECMG 1910/1912 28010KT BECMG 1916/1918 32005KT =
LDRI 182325Z 1900/2000 VRB02KT CAVOK TX30/1913Z TN20/1904Z PROB30 TEMPO 1911/1916 30007KT =
LDOS 182325Z 1900/2000 13007KT CAVOK TX33/1913Z TN15/1903Z =
SR / SS: 04:00 / 17:57 UTC (Zagreb 2019-08-19)